createdAt,value
2017-07-04T00:01:52.227Z,5.93
2017-07-04T00:04:18.841Z,7.50
2017-07-04T00:06:45.482Z,7.63
2017-07-04T00:09:12.152Z,9.10
2017-07-04T00:11:38.796Z,8.10
2017-07-04T00:14:05.428Z,8.50
2017-07-04T00:16:32.046Z,9.10
2017-07-04T00:18:58.667Z,7.80
2017-07-04T00:21:25.300Z,9.13
2017-07-04T00:23:51.936Z,10.27
2017-07-04T00:26:18.585Z,10.43
2017-07-04T00:28:45.222Z,10.40
2017-07-04T00:31:11.876Z,10.70
2017-07-04T00:33:38.486Z,10.50
2017-07-04T00:36:05.894Z,8.90
2017-07-04T00:38:32.534Z,8.50
2017-07-04T00:40:59.179Z,9.60
2017-07-04T00:43:25.805Z,8.93
2017-07-04T00:45:52.450Z,9.73
2017-07-04T00:48:19.097Z,8.63
2017-07-04T00:50:45.719Z,7.07
2017-07-04T00:53:13.189Z,7.10
2017-07-04T00:55:41.541Z,6.50
2017-07-04T00:58:10.733Z,5.10
2017-07-04T01:00:38.027Z,6.87
2017-07-04T01:03:08.296Z,6.40
2017-07-04T01:05:38.791Z,6.27
2017-07-04T01:08:07.128Z,7.00
2017-07-04T01:10:37.024Z,6.27
2017-07-04T01:13:06.459Z,6.10
2017-07-04T01:15:38.734Z,5.63
2017-07-04T01:18:06.274Z,6.30
2017-07-04T01:20:35.150Z,5.90
2017-07-04T01:23:01.789Z,6.27
2017-07-04T01:25:28.415Z,6.60
2017-07-04T01:27:56.832Z,6.13
2017-07-04T01:30:24.243Z,7.63
2017-07-04T01:32:51.656Z,8.40
2017-07-04T01:35:19.928Z,8.50
2017-07-04T01:37:47.079Z,7.00
2017-07-04T01:40:14.205Z,6.97
2017-07-04T01:42:41.505Z,8.27
2017-07-04T01:45:11.098Z,8.37
2017-07-04T01:47:38.596Z,7.30
2017-07-04T01:50:06.927Z,7.83
2017-07-04T01:52:35.263Z,6.90
2017-07-04T01:55:04.551Z,7.77
2017-07-04T01:57:32.462Z,7.00
2017-07-04T02:00:00.282Z,6.10
2017-07-04T02:02:27.967Z,5.90
2017-07-04T02:04:54.628Z,6.20
2017-07-04T02:07:21.247Z,6.63
2017-07-04T02:09:47.881Z,7.43
2017-07-04T02:12:14.515Z,5.50
2017-07-04T02:14:41.159Z,5.70
2017-07-04T02:17:07.791Z,5.50
2017-07-04T02:19:34.420Z,5.17
2017-07-04T02:22:01.056Z,6.43
2017-07-04T02:24:27.722Z,5.83
2017-07-04T02:26:54.344Z,4.90
2017-07-04T02:29:21.007Z,5.33
2017-07-04T02:31:47.678Z,5.70
2017-07-04T02:34:14.303Z,5.40
2017-07-04T02:36:40.962Z,5.80
2017-07-04T02:39:07.580Z,5.80
2017-07-04T02:41:38.741Z,5.73
2017-07-04T02:44:06.080Z,5.87
2017-07-04T02:46:32.691Z,5.23
2017-07-04T02:48:59.364Z,6.27
2017-07-04T02:51:28.507Z,6.53
2017-07-04T02:53:57.561Z,5.97
2017-07-04T02:56:25.702Z,5.07
2017-07-04T02:58:54.197Z,5.77
2017-07-04T03:01:21.597Z,7.27
2017-07-04T03:03:51.012Z,6.67
2017-07-04T03:06:19.240Z,7.20
2017-07-04T03:08:45.863Z,7.47
2017-07-04T03:11:12.537Z,6.60
2017-07-04T03:13:39.191Z,6.67
2017-07-04T03:16:05.816Z,8.07
2017-07-04T03:18:32.468Z,7.73
2017-07-04T03:21:01.795Z,8.00
2017-07-04T03:23:33.343Z,7.70
2017-07-04T03:25:59.979Z,7.47
2017-07-04T03:28:27.780Z,7.00
2017-07-04T03:30:54.455Z,8.00
2017-07-04T03:33:21.070Z,7.37
2017-07-04T03:35:47.721Z,8.20
2017-07-04T03:38:14.345Z,9.00
2017-07-04T03:40:40.962Z,7.50
2017-07-04T03:43:07.603Z,9.00
2017-07-04T03:45:34.234Z,8.47
2017-07-04T03:48:00.879Z,9.03
2017-07-04T03:50:27.500Z,7.63
2017-07-04T03:52:56.676Z,9.13
2017-07-04T03:55:26.389Z,8.97
2017-07-04T03:57:54.363Z,8.03
2017-07-04T04:00:21.011Z,8.13
2017-07-04T04:02:47.688Z,8.70
2017-07-04T04:05:14.685Z,8.70
2017-07-04T04:07:41.325Z,7.53
2017-07-04T04:10:07.958Z,8.30
2017-07-04T04:12:34.591Z,8.20
2017-07-04T04:15:01.228Z,8.90
2017-07-04T04:17:27.848Z,8.90
2017-07-04T04:19:54.512Z,8.00
2017-07-04T04:22:21.170Z,8.97
2017-07-04T04:24:47.781Z,9.40
2017-07-04T04:27:14.411Z,8.97
2017-07-04T04:29:41.050Z,9.20
2017-07-04T04:32:08.676Z,7.93
2017-07-04T04:34:38.949Z,8.17
2017-07-04T04:37:06.499Z,8.87
2017-07-04T04:39:33.906Z,7.20
2017-07-04T04:42:02.161Z,8.70
2017-07-04T04:44:28.802Z,7.13
2017-07-04T04:46:58.381Z,7.30
2017-07-04T04:49:25.147Z,7.60
2017-07-04T04:51:54.627Z,7.07
2017-07-04T04:54:21.420Z,7.67
2017-07-04T04:56:49.540Z,7.40
2017-07-04T04:59:18.966Z,6.40
2017-07-04T05:01:46.450Z,7.23
2017-07-04T05:04:13.117Z,7.10
2017-07-04T05:06:40.012Z,6.93
2017-07-04T05:09:06.622Z,6.73
2017-07-04T05:11:34.652Z,6.73
2017-07-04T05:14:01.293Z,6.80
2017-07-04T05:16:33.760Z,7.00
2017-07-04T05:19:01.614Z,5.53
2017-07-04T05:21:29.899Z,6.03
2017-07-04T05:23:57.194Z,6.30
2017-07-04T05:26:25.041Z,6.00
2017-07-04T05:28:53.078Z,6.20
2017-07-04T05:31:19.798Z,6.90
2017-07-04T05:33:46.972Z,6.40
2017-07-04T05:36:14.159Z,7.27
2017-07-04T05:38:41.432Z,6.40
2017-07-04T05:41:10.059Z,8.00
2017-07-04T05:43:37.557Z,8.53
2017-07-04T05:46:04.861Z,7.60
2017-07-04T05:48:33.114Z,7.10
2017-07-04T05:50:59.767Z,7.60
2017-07-04T05:53:26.436Z,8.53
2017-07-04T05:55:53.559Z,9.07
2017-07-04T05:58:20.203Z,7.57
2017-07-04T06:00:46.849Z,7.23
2017-07-04T06:03:13.478Z,9.53
2017-07-04T06:05:43.437Z,10.13
2017-07-04T06:08:13.107Z,8.23
2017-07-04T06:10:42.392Z,8.30
2017-07-04T06:13:12.751Z,9.83
2017-07-04T06:15:41.524Z,11.40
2017-07-04T06:18:10.758Z,10.80
2017-07-04T06:20:41.589Z,11.77
2017-07-04T06:23:09.559Z,12.80
2017-07-04T06:25:39.140Z,15.50
2017-07-04T06:28:08.985Z,14.60
2017-07-04T06:30:41.529Z,14.60
2017-07-04T06:33:09.282Z,12.73
2017-07-04T06:35:39.007Z,16.73
2017-07-04T06:38:07.805Z,18.67
2017-07-04T06:40:35.984Z,17.80
2017-07-04T06:43:05.818Z,20.40
2017-07-04T06:45:35.050Z,18.70
2017-07-04T06:48:06.479Z,19.43
2017-07-04T06:50:38.913Z,19.33
2017-07-04T06:53:06.156Z,20.80
2017-07-04T06:55:36.188Z,20.70
2017-07-04T06:58:03.975Z,20.73
2017-07-04T07:00:33.241Z,19.40
2017-07-04T07:03:03.686Z,21.67
2017-07-04T07:05:32.279Z,23.20
2017-07-04T07:08:00.410Z,22.73
2017-07-04T07:10:29.521Z,22.77
2017-07-04T07:12:59.012Z,23.77
2017-07-04T07:15:28.481Z,22.30
2017-07-04T07:17:57.997Z,21.30
2017-07-04T07:20:27.901Z,23.43
2017-07-04T07:22:56.713Z,20.40
2017-07-04T07:25:25.923Z,21.63
2017-07-04T07:27:53.266Z,21.60
2017-07-04T07:30:21.283Z,23.83
2017-07-04T07:32:52.183Z,20.73
2017-07-04T07:35:21.263Z,22.40
2017-07-04T07:37:50.019Z,20.60
2017-07-04T07:40:19.751Z,20.77
2017-07-04T07:42:48.117Z,20.53
2017-07-04T07:45:16.303Z,20.47
2017-07-04T07:47:45.399Z,20.77
2017-07-04T07:50:14.765Z,20.03
2017-07-04T07:52:44.009Z,18.27
2017-07-04T07:55:11.144Z,16.93
2017-07-04T07:57:40.091Z,14.83
2017-07-04T08:00:08.883Z,14.77
2017-07-04T08:02:38.350Z,18.10
2017-07-04T08:05:08.498Z,15.50
2017-07-04T08:07:37.835Z,16.30
2017-07-04T08:10:07.378Z,14.10
2017-07-04T08:12:37.262Z,16.60
2017-07-04T08:15:06.145Z,15.83
2017-07-04T08:17:34.725Z,14.60
2017-07-04T08:20:02.706Z,14.80
2017-07-04T08:22:31.760Z,18.40
2017-07-04T08:25:00.068Z,16.50
2017-07-04T08:27:27.208Z,19.67
2017-07-04T08:29:56.330Z,19.93
2017-07-04T08:32:25.994Z,18.97
2017-07-04T08:34:55.404Z,21.27
2017-07-04T08:37:23.447Z,20.27
2017-07-04T08:39:50.631Z,22.17
2017-07-04T08:42:20.679Z,22.17
2017-07-04T08:44:52.472Z,20.87
2017-07-04T08:47:23.016Z,22.33
2017-07-04T08:49:51.915Z,21.27
2017-07-04T08:52:20.224Z,21.83
2017-07-04T08:54:49.107Z,21.63
2017-07-04T08:57:17.240Z,21.00
2017-07-04T08:59:46.024Z,20.57
2017-07-04T09:02:14.471Z,20.00
2017-07-04T09:04:44.629Z,19.17
2017-07-04T09:07:14.120Z,17.90
2017-07-04T09:09:43.287Z,17.70
2017-07-04T09:12:11.105Z,22.20
2017-07-04T09:14:40.302Z,19.63
2017-07-04T09:17:09.505Z,20.83
2017-07-04T09:19:38.074Z,19.73
2017-07-04T09:22:07.234Z,19.57
2017-07-04T09:24:37.241Z,21.30
2017-07-04T09:27:06.023Z,19.60
2017-07-04T09:29:33.527Z,20.47
2017-07-04T09:32:02.419Z,17.00
2017-07-04T09:34:31.247Z,16.47
2017-07-04T09:36:59.867Z,17.47
2017-07-04T09:39:28.471Z,15.53
2017-07-04T09:41:58.150Z,16.20
2017-07-04T09:44:26.384Z,15.93
2017-07-04T09:46:54.667Z,16.17
2017-07-04T09:49:26.293Z,14.57
2017-07-04T09:51:55.236Z,17.40
2017-07-04T09:54:24.051Z,17.43
2017-07-04T09:56:53.846Z,16.00
2017-07-04T09:59:24.836Z,14.07
2017-07-04T10:01:54.615Z,12.27
2017-07-04T10:04:24.009Z,13.50
2017-07-04T10:06:51.883Z,14.00
2017-07-04T10:09:22.305Z,13.47
2017-07-04T10:11:52.782Z,12.70
2017-07-04T10:14:21.956Z,12.10
2017-07-04T10:16:51.227Z,13.40
2017-07-04T10:19:19.091Z,12.00
2017-07-04T10:21:48.247Z,12.77
2017-07-04T10:24:19.223Z,11.93
2017-07-04T10:26:47.955Z,10.60
2017-07-04T10:29:15.578Z,11.70
2017-07-04T10:31:42.201Z,10.83
2017-07-04T10:34:12.260Z,11.67
2017-07-04T10:36:41.433Z,10.97
2017-07-04T10:39:10.725Z,10.00
2017-07-04T10:41:39.589Z,9.33
2017-07-04T10:44:07.680Z,11.03
2017-07-04T10:46:36.416Z,10.50
2017-07-04T10:49:06.429Z,9.73
2017-07-04T10:51:35.204Z,10.80
2017-07-04T10:54:03.198Z,8.50
2017-07-04T10:56:32.017Z,11.57
2017-07-04T10:59:02.521Z,10.93
2017-07-04T11:01:30.490Z,9.50
2017-07-04T11:03:58.954Z,9.37
2017-07-04T11:06:27.950Z,11.80
2017-07-04T11:08:57.783Z,12.17
2017-07-04T11:11:27.129Z,10.20
2017-07-04T11:13:56.519Z,9.57
2017-07-04T11:16:24.153Z,9.17
2017-07-04T11:18:52.959Z,10.00
2017-07-04T11:21:19.680Z,17.27
2017-07-04T11:23:46.984Z,11.10
2017-07-04T11:26:16.404Z,10.20
2017-07-04T11:28:44.847Z,8.90
2017-07-04T11:31:12.385Z,11.80
2017-07-04T11:33:39.030Z,8.33
2017-07-04T11:36:05.668Z,10.87
2017-07-04T11:38:32.597Z,9.77
2017-07-04T11:40:59.271Z,9.33
2017-07-04T11:43:26.267Z,7.87
2017-07-04T11:45:57.204Z,9.03
2017-07-04T11:48:25.379Z,10.33
2017-07-04T11:50:53.246Z,11.20
2017-07-04T11:53:23.278Z,9.37
2017-07-04T11:55:50.507Z,9.20
2017-07-04T11:58:18.937Z,8.73
2017-07-04T12:00:45.608Z,8.23
2017-07-04T12:03:12.276Z,8.20
2017-07-04T12:05:38.900Z,7.23
2017-07-04T12:08:05.530Z,6.80
2017-07-04T12:10:32.238Z,7.93
2017-07-04T12:13:00.954Z,7.47
2017-07-04T12:15:27.933Z,7.60
2017-07-04T12:17:56.044Z,7.60
2017-07-04T12:20:25.293Z,11.10
2017-07-04T12:22:51.950Z,7.83
2017-07-04T12:25:18.603Z,7.33
2017-07-04T12:27:46.213Z,8.93
2017-07-04T12:30:12.860Z,7.53
2017-07-04T12:32:39.514Z,7.40
2017-07-04T12:35:06.448Z,7.20
2017-07-04T12:37:33.076Z,7.43
2017-07-04T12:40:00.710Z,8.07
2017-07-04T12:42:29.216Z,6.37
2017-07-04T12:44:57.938Z,7.90
2017-07-04T12:47:27.680Z,7.70
2017-07-04T12:49:56.120Z,6.90
2017-07-04T12:52:25.057Z,8.30
2017-07-04T12:54:53.440Z,7.97
2017-07-04T12:57:21.408Z,7.43
2017-07-04T12:59:49.485Z,5.27
2017-07-04T13:02:19.657Z,5.17
2017-07-04T13:04:48.909Z,4.93
2017-07-04T13:07:16.934Z,5.97
2017-07-04T13:09:49.070Z,5.60
2017-07-04T13:12:19.423Z,5.80
2017-07-04T13:14:48.192Z,4.50
2017-07-04T13:17:18.808Z,4.70
2017-07-04T13:19:46.678Z,4.50
2017-07-04T13:22:15.542Z,4.40
2017-07-04T13:24:44.315Z,5.60
2017-07-04T13:27:13.494Z,7.97
2017-07-04T13:29:42.970Z,7.03
2017-07-04T13:32:12.419Z,4.47
2017-07-04T13:34:40.221Z,4.73
2017-07-04T13:37:10.588Z,4.53
2017-07-04T13:39:38.778Z,5.33
2017-07-04T13:42:05.700Z,5.20
2017-07-04T13:44:35.065Z,4.03
2017-07-04T13:47:04.439Z,4.73
2017-07-04T13:49:33.805Z,5.83
2017-07-04T13:52:01.866Z,4.30
2017-07-04T13:54:31.229Z,2.93
2017-07-04T13:57:00.676Z,4.20
2017-07-04T13:59:29.946Z,4.50
2017-07-04T14:01:59.499Z,6.10
2017-07-04T14:04:28.403Z,7.70
2017-07-04T14:06:57.039Z,11.70
2017-07-04T14:09:26.955Z,10.00
2017-07-04T14:11:56.687Z,12.10
2017-07-04T14:14:25.624Z,9.17
2017-07-04T14:16:53.350Z,9.10
2017-07-04T14:19:21.156Z,11.27
2017-07-04T14:21:50.282Z,11.40
2017-07-04T14:24:19.515Z,10.90
2017-07-04T14:26:49.922Z,12.87
2017-07-04T14:29:19.830Z,11.47
2017-07-04T14:31:47.948Z,9.37
2017-07-04T14:34:17.412Z,12.30
2017-07-04T14:36:47.627Z,11.83
2017-07-04T14:39:19.344Z,12.03
2017-07-04T14:41:48.335Z,12.73
2017-07-04T14:44:16.837Z,12.13
2017-07-04T14:46:45.724Z,13.60
2017-07-04T14:49:16.018Z,13.37
2017-07-04T14:51:44.732Z,12.30
2017-07-04T14:54:12.696Z,10.77
2017-07-04T14:56:40.317Z,10.03
2017-07-04T14:59:10.749Z,17.17
2017-07-04T15:01:39.641Z,12.00
2017-07-04T15:04:09.738Z,11.60
2017-07-04T15:06:38.348Z,11.13
2017-07-04T15:09:07.720Z,16.63
2017-07-04T15:11:37.380Z,16.30
2017-07-04T15:14:08.120Z,14.47
2017-07-04T15:16:36.941Z,15.40
2017-07-04T15:19:05.585Z,15.77
2017-07-04T15:21:33.347Z,15.67
2017-07-04T15:24:02.645Z,15.43
2017-07-04T15:26:32.103Z,14.50
2017-07-04T15:28:59.706Z,16.90
2017-07-04T15:31:33.309Z,14.53
2017-07-04T15:34:03.457Z,14.60
2017-07-04T15:36:32.516Z,14.80
2017-07-04T15:39:02.879Z,17.33
2017-07-04T15:41:32.429Z,15.00
2017-07-04T15:44:01.438Z,11.80
2017-07-04T15:46:30.148Z,15.80
2017-07-04T15:48:59.647Z,15.50
2017-07-04T15:51:28.575Z,15.27
2017-07-04T15:53:59.612Z,14.43
2017-07-04T15:56:28.371Z,12.60
2017-07-04T15:58:56.820Z,14.40
2017-07-04T16:01:26.118Z,13.70
2017-07-04T16:03:56.420Z,13.60
2017-07-04T16:06:24.706Z,12.10
2017-07-04T16:08:53.610Z,11.57
2017-07-04T16:11:23.927Z,16.03
2017-07-04T16:13:51.384Z,13.87
2017-07-04T16:16:21.691Z,14.20
2017-07-04T16:18:51.002Z,15.20
2017-07-04T16:21:20.654Z,13.10
2017-07-04T16:23:54.877Z,13.20
2017-07-04T16:26:25.350Z,14.70
2017-07-04T16:28:54.807Z,14.13
2017-07-04T16:31:24.317Z,10.93
2017-07-04T16:33:52.591Z,11.97
2017-07-04T16:36:20.382Z,10.37
2017-07-04T16:38:49.387Z,10.67
2017-07-04T16:41:18.456Z,10.70
2017-07-04T16:43:46.155Z,12.40
2017-07-04T16:46:18.794Z,11.77
2017-07-04T16:48:47.094Z,14.70
2017-07-04T16:51:15.884Z,10.57
2017-07-04T16:53:44.799Z,9.80
2017-07-04T16:56:12.563Z,11.63
2017-07-04T16:58:44.149Z,10.70
2017-07-04T17:01:13.772Z,10.80
2017-07-04T17:03:42.679Z,10.07
2017-07-04T17:06:11.568Z,11.27
2017-07-04T17:08:40.701Z,12.27
2017-07-04T17:11:09.442Z,8.40
2017-07-04T17:13:40.967Z,9.47
2017-07-04T17:16:09.398Z,9.00
2017-07-04T17:18:38.641Z,8.23
2017-07-04T17:21:07.893Z,10.67
2017-07-04T17:23:39.921Z,8.97
2017-07-04T17:26:07.831Z,7.63
2017-07-04T17:28:38.084Z,9.73
2017-07-04T17:31:07.114Z,9.00
2017-07-04T17:33:35.270Z,9.20
2017-07-04T17:36:03.763Z,9.97
2017-07-04T17:38:33.139Z,12.30
2017-07-04T17:41:01.872Z,10.00
2017-07-04T17:43:31.572Z,9.47
2017-07-04T17:46:01.735Z,12.10
2017-07-04T17:48:31.873Z,9.13
2017-07-04T17:51:01.330Z,8.27
2017-07-04T17:53:29.776Z,10.37
2017-07-04T17:55:58.262Z,8.30
2017-07-04T17:58:27.765Z,8.70
2017-07-04T18:00:58.548Z,7.90
2017-07-04T18:03:27.209Z,9.47
2017-07-04T18:05:56.243Z,8.97
2017-07-04T18:08:25.445Z,8.30
2017-07-04T18:10:53.757Z,8.50
2017-07-04T18:13:22.424Z,7.63
2017-07-04T18:15:51.283Z,7.40
2017-07-04T18:18:20.606Z,7.57
2017-07-04T18:20:51.451Z,8.40
2017-07-04T18:23:21.161Z,8.07
2017-07-04T18:25:50.144Z,8.77
2017-07-04T18:28:18.221Z,8.80
2017-07-04T18:30:46.886Z,8.80
2017-07-04T18:33:15.838Z,8.50
2017-07-04T18:35:45.450Z,7.47
2017-07-04T18:38:15.127Z,7.60
2017-07-04T18:40:45.908Z,8.87
2017-07-04T18:43:13.231Z,8.07
2017-07-04T18:45:42.874Z,8.03
2017-07-04T18:48:14.614Z,8.33
2017-07-04T18:50:42.683Z,8.53
2017-07-04T18:53:14.419Z,10.43
2017-07-04T18:55:42.350Z,8.80
2017-07-04T18:58:12.150Z,7.53
2017-07-04T19:00:40.153Z,9.43
2017-07-04T19:03:09.650Z,8.40
2017-07-04T19:05:38.308Z,7.83
2017-07-04T19:08:06.684Z,8.87
2017-07-04T19:10:35.762Z,7.97
2017-07-04T19:13:04.484Z,9.10
2017-07-04T19:15:34.451Z,10.00
2017-07-04T19:18:02.860Z,8.77
2017-07-04T19:20:30.160Z,8.70
2017-07-04T19:22:59.195Z,8.73
2017-07-04T19:25:29.951Z,8.50
2017-07-04T19:27:57.728Z,8.87
2017-07-04T19:30:26.805Z,9.60
2017-07-04T19:32:55.205Z,9.60
2017-07-04T19:35:24.257Z,9.03
2017-07-04T19:37:53.286Z,9.57
2017-07-04T19:40:23.278Z,7.97
2017-07-04T19:42:50.924Z,10.30
2017-07-04T19:45:20.644Z,10.30
2017-07-04T19:47:50.443Z,9.80
2017-07-04T19:50:18.132Z,11.60
2017-07-04T19:52:46.655Z,9.33
2017-07-04T19:55:15.810Z,10.87
2017-07-04T19:57:45.493Z,11.10
2017-07-04T20:00:14.916Z,10.63
2017-07-04T20:02:45.800Z,10.80
2017-07-04T20:05:14.817Z,11.60
2017-07-04T20:07:43.412Z,11.57
2017-07-04T20:10:14.745Z,11.20
2017-07-04T20:12:46.887Z,11.90
2017-07-04T20:15:17.923Z,11.30
2017-07-04T20:17:45.815Z,10.53
2017-07-04T20:20:12.436Z,13.23
2017-07-04T20:22:42.919Z,12.97
2017-07-04T20:25:11.953Z,13.57
2017-07-04T20:27:40.935Z,12.90
2017-07-04T20:30:13.963Z,12.80
2017-07-04T20:32:43.652Z,13.40
2017-07-04T20:35:12.921Z,12.83
2017-07-04T20:37:43.697Z,11.67
2017-07-04T20:40:15.690Z,12.60
2017-07-04T20:42:47.148Z,11.83
2017-07-04T20:45:16.902Z,13.53
2017-07-04T20:47:46.935Z,12.57
2017-07-04T20:50:14.737Z,12.43
2017-07-04T20:52:42.882Z,14.53
2017-07-04T20:55:09.554Z,13.30
2017-07-04T20:57:39.898Z,12.43
2017-07-04T21:00:08.599Z,12.70
2017-07-04T21:02:35.638Z,14.40
2017-07-04T21:05:02.285Z,13.00
2017-07-04T21:07:34.220Z,13.30
2017-07-04T21:10:02.425Z,14.33
2017-07-04T21:12:32.770Z,14.00
2017-07-04T21:15:01.846Z,14.30
2017-07-04T21:17:30.852Z,14.17
2017-07-04T21:19:59.918Z,12.97
2017-07-04T21:22:28.641Z,14.20
2017-07-04T21:24:59.385Z,15.10
2017-07-04T21:27:29.103Z,15.17
2017-07-04T21:29:57.934Z,14.43
2017-07-04T21:32:26.236Z,14.27
2017-07-04T21:34:54.725Z,15.50
2017-07-04T21:37:23.608Z,12.57
2017-07-04T21:39:52.729Z,14.50
2017-07-04T21:42:21.552Z,15.07
2017-07-04T21:44:49.875Z,14.10
2017-07-04T21:47:18.088Z,13.90
2017-07-04T21:49:47.910Z,16.00
2017-07-04T21:52:17.555Z,14.03
2017-07-04T21:54:46.906Z,15.10
2017-07-04T21:57:15.223Z,15.20
2017-07-04T21:59:43.983Z,15.43
2017-07-04T22:02:14.055Z,14.60
2017-07-04T22:04:43.599Z,14.77
2017-07-04T22:07:14.167Z,15.70
2017-07-04T22:09:43.083Z,15.23
2017-07-04T22:12:12.039Z,16.83
2017-07-04T22:14:40.838Z,17.20
2017-07-04T22:17:10.120Z,15.20
2017-07-04T22:19:38.948Z,16.73
2017-07-04T22:22:07.145Z,15.37
2017-07-04T22:24:39.388Z,16.20
2017-07-04T22:27:07.564Z,15.47
2017-07-04T22:29:35.419Z,16.70
2017-07-04T22:32:04.907Z,15.40
2017-07-04T22:34:36.445Z,17.70
2017-07-04T22:37:04.287Z,16.47
2017-07-04T22:39:33.798Z,17.90
2017-07-04T22:42:05.587Z,16.73
2017-07-04T22:44:34.463Z,16.10
2017-07-04T22:47:03.958Z,16.33
2017-07-04T22:49:33.120Z,17.40
2017-07-04T22:52:02.623Z,17.10
2017-07-04T22:54:32.149Z,18.20
2017-07-04T22:57:00.561Z,17.03
2017-07-04T22:59:29.471Z,18.20
2017-07-04T23:01:58.961Z,18.40
2017-07-04T23:04:31.629Z,19.60
2017-07-04T23:06:59.754Z,16.63
2017-07-04T23:09:29.907Z,17.67
2017-07-04T23:12:00.146Z,19.27
2017-07-04T23:14:28.923Z,18.03
2017-07-04T23:16:58.808Z,18.43
2017-07-04T23:19:27.161Z,19.60
2017-07-04T23:21:57.029Z,17.63
2017-07-04T23:24:25.475Z,18.53
2017-07-04T23:26:54.510Z,18.67
2017-07-04T23:29:23.432Z,17.17
2017-07-04T23:31:52.883Z,17.33
2017-07-04T23:34:21.316Z,18.83
2017-07-04T23:36:51.574Z,18.33
2017-07-04T23:39:20.193Z,20.40
2017-07-04T23:41:48.017Z,18.80
2017-07-04T23:44:16.606Z,18.80
2017-07-04T23:46:45.551Z,19.20
2017-07-04T23:49:16.566Z,17.30
2017-07-04T23:51:46.624Z,15.77
2017-07-04T23:54:15.085Z,17.20
2017-07-04T23:56:45.232Z,17.33
2017-07-04T23:59:14.070Z,17.80
